sensor_id;sensor_type;location;lat;lon;timestamp;pressure;altitude;pressure_sealevel;temperature;humidity
9672;BME280;4874;43.568;27.824;2023-02-18T00:01:11;99381.56;;;8.09;100.00
9672;BME280;4874;43.568;27.824;2023-02-18T00:03:39;99387.31;;;8.03;100.00
9672;BME280;4874;43.568;27.824;2023-02-18T00:06:17;99380.22;;;8.03;100.00
9672;BME280;4874;43.568;27.824;2023-02-18T00:08:44;99373.88;;;8.17;100.00
9672;BME280;4874;43.568;27.824;2023-02-18T00:11:12;99375.72;;;8.27;100.00
9672;BME280;4874;43.568;27.824;2023-02-18T00:13:39;99359.41;;;8.21;100.00
9672;BME280;4874;43.568;27.824;2023-02-18T00:16:06;99357.03;;;8.18;100.00
9672;BME280;4874;43.568;27.824;2023-02-18T00:18:34;99361.34;;;8.08;100.00
9672;BME280;4874;43.568;27.824;2023-02-18T00:21:06;99348.16;;;8.30;100.00
9672;BME280;4874;43.568;27.824;2023-02-18T00:23:34;99358.13;;;8.15;100.00
9672;BME280;4874;43.568;27.824;2023-02-18T00:26:04;99348.75;;;8.22;100.00
9672;BME280;4874;43.568;27.824;2023-02-18T00:28:32;99351.25;;;8.13;100.00
9672;BME280;4874;43.568;27.824;2023-02-18T00:30:58;99350.41;;;8.12;100.00
9672;BME280;4874;43.568;27.824;2023-02-18T00:33:25;99337.31;;;8.22;100.00
9672;BME280;4874;43.568;27.824;2023-02-18T00:35:52;99328.44;;;8.12;100.00
9672;BME280;4874;43.568;27.824;2023-02-18T00:38:26;99332.97;;;7.99;100.00
9672;BME280;4874;43.568;27.824;2023-02-18T00:40:52;99321.91;;;7.94;100.00
9672;BME280;4874;43.568;27.824;2023-02-18T00:43:19;99328.88;;;7.84;100.00
9672;BME280;4874;43.568;27.824;2023-02-18T00:45:46;99319.78;;;7.88;100.00
9672;BME280;4874;43.568;27.824;2023-02-18T00:48:13;99318.81;;;7.78;100.00
9672;BME280;4874;43.568;27.824;2023-02-18T00:50:39;99315.06;;;7.69;100.00
9672;BME280;4874;43.568;27.824;2023-02-18T00:53:06;99313.59;;;7.65;100.00
9672;BME280;4874;43.568;27.824;2023-02-18T00:55:40;99315.88;;;7.70;100.00
9672;BME280;4874;43.568;27.824;2023-02-18T00:58:07;99282.97;;;7.52;100.00
9672;BME280;4874;43.568;27.824;2023-02-18T01:00:34;99315.66;;;7.73;100.00
9672;BME280;4874;43.568;27.824;2023-02-18T01:03:01;99321.69;;;7.86;100.00
9672;BME280;4874;43.568;27.824;2023-02-18T01:05:28;99326.72;;;7.78;100.00
9672;BME280;4874;43.568;27.824;2023-02-18T01:07:54;99306.06;;;7.94;100.00
9672;BME280;4874;43.568;27.824;2023-02-18T01:10:21;99312.06;;;7.96;100.00
9672;BME280;4874;43.568;27.824;2023-02-18T01:12:48;99320.16;;;8.05;100.00
9672;BME280;4874;43.568;27.824;2023-02-18T01:15:15;99308.69;;;8.16;100.00
9672;BME280;4874;43.568;27.824;2023-02-18T01:17:43;99316.28;;;8.20;100.00
9672;BME280;4874;43.568;27.824;2023-02-18T01:20:10;99305.25;;;8.15;100.00
9672;BME280;4874;43.568;27.824;2023-02-18T01:22:37;99304.13;;;8.18;100.00
9672;BME280;4874;43.568;27.824;2023-02-18T01:25:05;99301.28;;;8.32;100.00
9672;BME280;4874;43.568;27.824;2023-02-18T01:27:31;99309.44;;;8.18;100.00
9672;BME280;4874;43.568;27.824;2023-02-18T01:29:58;99305.13;;;8.39;100.00
9672;BME280;4874;43.568;27.824;2023-02-18T01:32:25;99309.56;;;8.39;100.00
9672;BME280;4874;43.568;27.824;2023-02-18T01:34:51;99308.22;;;8.22;100.00
9672;BME280;4874;43.568;27.824;2023-02-18T01:37:18;99309.69;;;8.15;100.00
9672;BME280;4874;43.568;27.824;2023-02-18T01:39:45;99300.69;;;8.17;100.00
9672;BME280;4874;43.568;27.824;2023-02-18T01:42:23;99277.00;;;8.27;100.00
9672;BME280;4874;43.568;27.824;2023-02-18T01:44:50;99277.47;;;7.99;100.00
9672;BME280;4874;43.568;27.824;2023-02-18T01:47:17;99262.31;;;8.01;100.00
9672;BME280;4874;43.568;27.824;2023-02-18T01:49:48;99250.56;;;7.83;100.00
9672;BME280;4874;43.568;27.824;2023-02-18T01:52:25;99247.44;;;7.67;100.00
9672;BME280;4874;43.568;27.824;2023-02-18T01:54:55;99258.63;;;7.81;100.00
9672;BME280;4874;43.568;27.824;2023-02-18T01:57:26;99258.00;;;7.67;100.00
9672;BME280;4874;43.568;27.824;2023-02-18T01:59:58;99258.25;;;7.97;100.00
9672;BME280;4874;43.568;27.824;2023-02-18T02:02:27;99272.91;;;7.68;100.00
9672;BME280;4874;43.568;27.824;2023-02-18T02:04:54;99261.97;;;7.83;100.00
9672;BME280;4874;43.568;27.824;2023-02-18T02:07:22;99268.13;;;7.95;100.00
9672;BME280;4874;43.568;27.824;2023-02-18T02:09:51;99269.91;;;8.05;100.00
9672;BME280;4874;43.568;27.824;2023-02-18T02:17:26;99259.91;;;8.20;100.00
9672;BME280;4874;43.568;27.824;2023-02-18T02:26:52;99280.97;;;8.32;100.00
9672;BME280;4874;43.568;27.824;2023-02-18T02:37:36;99269.63;;;8.53;100.00
9672;BME280;4874;43.568;27.824;2023-02-18T02:43:14;99265.25;;;8.63;100.00
9672;BME280;4874;43.568;27.824;2023-02-18T02:45:54;99262.03;;;8.59;100.00
9672;BME280;4874;43.568;27.824;2023-02-18T02:54:18;99262.66;;;8.52;100.00
9672;BME280;4874;43.568;27.824;2023-02-18T02:56:46;99246.78;;;8.52;100.00
9672;BME280;4874;43.568;27.824;2023-02-18T02:59:20;99253.16;;;8.16;100.00
9672;BME280;4874;43.568;27.824;2023-02-18T03:13:01;99229.94;;;8.53;100.00
9672;BME280;4874;43.568;27.824;2023-02-18T03:20:55;99231.72;;;8.63;100.00
9672;BME280;4874;43.568;27.824;2023-02-18T03:23:37;99226.13;;;8.77;100.00
9672;BME280;4874;43.568;27.824;2023-02-18T03:26:07;99220.25;;;8.74;100.00
9672;BME280;4874;43.568;27.824;2023-02-18T03:28:35;99219.97;;;8.77;100.00
9672;BME280;4874;43.568;27.824;2023-02-18T03:31:15;99225.59;;;8.83;100.00
9672;BME280;4874;43.568;27.824;2023-02-18T03:33:48;99219.41;;;8.73;100.00
9672;BME280;4874;43.568;27.824;2023-02-18T03:36:18;99223.06;;;8.93;100.00
9672;BME280;4874;43.568;27.824;2023-02-18T03:41:19;99227.50;;;9.13;100.00
9672;BME280;4874;43.568;27.824;2023-02-18T03:43:53;99232.28;;;9.19;100.00
9672;BME280;4874;43.568;27.824;2023-02-18T03:46:23;99235.06;;;9.17;100.00
9672;BME280;4874;43.568;27.824;2023-02-18T03:48:50;99224.91;;;9.22;100.00
9672;BME280;4874;43.568;27.824;2023-02-18T03:51:17;99219.13;;;9.08;100.00
9672;BME280;4874;43.568;27.824;2023-02-18T03:53:45;99214.66;;;9.08;100.00
9672;BME280;4874;43.568;27.824;2023-02-18T03:56:13;99194.16;;;8.90;100.00
9672;BME280;4874;43.568;27.824;2023-02-18T03:58:39;99206.06;;;8.95;100.00
9672;BME280;4874;43.568;27.824;2023-02-18T04:01:06;99215.81;;;9.15;100.00
9672;BME280;4874;43.568;27.824;2023-02-18T04:03:33;99209.59;;;9.05;100.00
9672;BME280;4874;43.568;27.824;2023-02-18T04:05:59;99195.19;;;8.98;100.00
9672;BME280;4874;43.568;27.824;2023-02-18T04:08:26;99188.94;;;8.99;100.00
9672;BME280;4874;43.568;27.824;2023-02-18T04:10:53;99184.25;;;9.03;100.00
9672;BME280;4874;43.568;27.824;2023-02-18T04:13:19;99172.94;;;9.01;100.00
9672;BME280;4874;43.568;27.824;2023-02-18T04:15:48;99148.56;;;8.86;100.00
9672;BME280;4874;43.568;27.824;2023-02-18T04:18:16;99176.66;;;8.98;100.00
9672;BME280;4874;43.568;27.824;2023-02-18T04:20:42;99178.94;;;9.23;100.00
9672;BME280;4874;43.568;27.824;2023-02-18T04:23:09;99166.56;;;9.33;100.00
9672;BME280;4874;43.568;27.824;2023-02-18T04:25:36;99140.84;;;9.15;100.00
9672;BME280;4874;43.568;27.824;2023-02-18T04:28:03;99122.53;;;9.12;100.00
9672;BME280;4874;43.568;27.824;2023-02-18T04:30:30;99025.47;;;8.71;100.00
9672;BME280;4874;43.568;27.824;2023-02-18T04:32:57;99151.91;;;9.60;100.00
9672;BME280;4874;43.568;27.824;2023-02-18T04:35:24;99153.22;;;9.44;100.00
9672;BME280;4874;43.568;27.824;2023-02-18T04:37:51;99153.66;;;9.49;100.00
9672;BME280;4874;43.568;27.824;2023-02-18T04:40:18;99156.38;;;9.29;100.00
9672;BME280;4874;43.568;27.824;2023-02-18T04:42:44;99149.56;;;9.36;100.00
9672;BME280;4874;43.568;27.824;2023-02-18T04:45:11;99156.41;;;9.38;100.00
9672;BME280;4874;43.568;27.824;2023-02-18T04:47:38;99155.16;;;9.12;100.00
9672;BME280;4874;43.568;27.824;2023-02-18T04:50:05;99156.72;;;9.45;100.00
9672;BME280;4874;43.568;27.824;2023-02-18T04:52:32;99149.34;;;9.18;100.00
9672;BME280;4874;43.568;27.824;2023-02-18T04:54:58;99163.16;;;9.42;100.00
9672;BME280;4874;43.568;27.824;2023-02-18T04:57:25;99174.94;;;9.29;100.00
9672;BME280;4874;43.568;27.824;2023-02-18T04:59:52;99163.22;;;9.31;100.00
9672;BME280;4874;43.568;27.824;2023-02-18T05:02:19;99176.63;;;9.39;100.00
9672;BME280;4874;43.568;27.824;2023-02-18T05:04:45;99181.88;;;9.30;100.00
9672;BME280;4874;43.568;27.824;2023-02-18T05:07:12;99169.06;;;9.25;100.00
9672;BME280;4874;43.568;27.824;2023-02-18T05:09:39;99168.31;;;9.44;100.00
9672;BME280;4874;43.568;27.824;2023-02-18T05:12:05;99172.94;;;9.51;100.00
9672;BME280;4874;43.568;27.824;2023-02-18T05:14:32;99176.44;;;9.52;100.00
9672;BME280;4874;43.568;27.824;2023-02-18T05:16:59;99151.00;;;9.49;100.00
9672;BME280;4874;43.568;27.824;2023-02-18T05:19:26;99167.75;;;9.50;100.00
9672;BME280;4874;43.568;27.824;2023-02-18T05:21:52;99167.72;;;9.40;100.00
9672;BME280;4874;43.568;27.824;2023-02-18T05:24:19;99174.50;;;9.64;100.00
9672;BME280;4874;43.568;27.824;2023-02-18T05:26:46;99175.09;;;9.67;100.00
9672;BME280;4874;43.568;27.824;2023-02-18T05:29:12;99170.72;;;9.57;100.00
9672;BME280;4874;43.568;27.824;2023-02-18T05:31:39;99171.56;;;9.57;100.00
9672;BME280;4874;43.568;27.824;2023-02-18T05:34:06;99166.13;;;9.59;100.00
9672;BME280;4874;43.568;27.824;2023-02-18T05:36:32;99167.69;;;9.61;100.00
9672;BME280;4874;43.568;27.824;2023-02-18T05:38:59;99158.84;;;9.51;100.00
9672;BME280;4874;43.568;27.824;2023-02-18T05:41:26;99166.13;;;9.59;100.00
9672;BME280;4874;43.568;27.824;2023-02-18T05:43:52;99154.81;;;9.57;100.00
9672;BME280;4874;43.568;27.824;2023-02-18T05:46:38;99149.50;;;9.47;100.00
9672;BME280;4874;43.568;27.824;2023-02-18T05:49:04;99152.22;;;9.36;100.00
9672;BME280;4874;43.568;27.824;2023-02-18T05:51:31;99136.88;;;9.39;100.00
9672;BME280;4874;43.568;27.824;2023-02-18T05:53:58;99149.91;;;9.42;100.00
9672;BME280;4874;43.568;27.824;2023-02-18T05:56:24;99147.69;;;9.47;100.00
9672;BME280;4874;43.568;27.824;2023-02-18T05:58:51;99135.50;;;9.35;100.00
9672;BME280;4874;43.568;27.824;2023-02-18T06:01:18;99151.22;;;9.58;100.00
9672;BME280;4874;43.568;27.824;2023-02-18T06:03:44;99157.44;;;9.47;100.00
9672;BME280;4874;43.568;27.824;2023-02-18T06:06:11;99150.13;;;9.70;99.85
9672;BME280;4874;43.568;27.824;2023-02-18T06:08:38;99149.50;;;9.87;98.73
9672;BME280;4874;43.568;27.824;2023-02-18T06:11:05;99152.81;;;9.79;97.37
9672;BME280;4874;43.568;27.824;2023-02-18T06:13:31;99143.91;;;9.80;97.02
9672;BME280;4874;43.568;27.824;2023-02-18T06:15:58;99151.88;;;9.90;96.17
9672;BME280;4874;43.568;27.824;2023-02-18T06:18:25;99158.97;;;9.89;96.12
9672;BME280;4874;43.568;27.824;2023-02-18T06:20:52;99153.53;;;9.91;95.85
9672;BME280;4874;43.568;27.824;2023-02-18T06:23:18;99151.78;;;10.01;95.40
9672;BME280;4874;43.568;27.824;2023-02-18T06:25:47;99147.13;;;10.03;95.69
9672;BME280;4874;43.568;27.824;2023-02-18T06:28:15;99162.44;;;10.20;94.39
9672;BME280;4874;43.568;27.824;2023-02-18T06:30:44;99153.38;;;10.13;94.03
9672;BME280;4874;43.568;27.824;2023-02-18T06:33:11;99156.59;;;10.26;92.98
9672;BME280;4874;43.568;27.824;2023-02-18T06:35:38;99163.59;;;10.36;92.38
9672;BME280;4874;43.568;27.824;2023-02-18T06:38:05;99153.41;;;10.41;92.44
9672;BME280;4874;43.568;27.824;2023-02-18T06:40:31;99157.00;;;10.40;92.57
9672;BME280;4874;43.568;27.824;2023-02-18T06:42:58;99159.69;;;10.50;92.05
9672;BME280;4874;43.568;27.824;2023-02-18T06:45:25;99162.63;;;10.56;93.31
9672;BME280;4874;43.568;27.824;2023-02-18T06:47:51;99159.69;;;10.69;91.93
9672;BME280;4874;43.568;27.824;2023-02-18T06:50:18;99163.31;;;10.78;92.57
9672;BME280;4874;43.568;27.824;2023-02-18T06:52:45;99168.22;;;10.73;91.18
9672;BME280;4874;43.568;27.824;2023-02-18T06:55:12;99159.81;;;10.77;91.70
9672;BME280;4874;43.568;27.824;2023-02-18T06:57:38;99161.63;;;10.86;93.42
9672;BME280;4874;43.568;27.824;2023-02-18T07:00:05;99163.28;;;10.87;95.12
9672;BME280;4874;43.568;27.824;2023-02-18T07:02:32;99163.59;;;10.84;98.42
9672;BME280;4874;43.568;27.824;2023-02-18T07:04:59;99187.91;;;10.89;91.88
9672;BME280;4874;43.568;27.824;2023-02-18T07:07:26;99177.97;;;10.82;94.67
9672;BME280;4874;43.568;27.824;2023-02-18T07:09:52;99171.69;;;11.02;95.26
9672;BME280;4874;43.568;27.824;2023-02-18T07:12:19;99163.84;;;10.91;96.29
9672;BME280;4874;43.568;27.824;2023-02-18T07:14:46;99162.72;;;11.03;96.03
9672;BME280;4874;43.568;27.824;2023-02-18T07:17:12;99153.19;;;11.10;97.08
9672;BME280;4874;43.568;27.824;2023-02-18T07:19:40;99146.78;;;11.03;95.00
9672;BME280;4874;43.568;27.824;2023-02-18T07:22:06;99150.09;;;11.14;94.45
9672;BME280;4874;43.568;27.824;2023-02-18T07:24:33;99146.94;;;11.01;97.10
9672;BME280;4874;43.568;27.824;2023-02-18T07:27:00;99147.03;;;11.19;95.12
9672;BME280;4874;43.568;27.824;2023-02-18T07:29:27;99143.38;;;11.29;95.59
9672;BME280;4874;43.568;27.824;2023-02-18T07:31:53;99137.78;;;11.23;94.13
9672;BME280;4874;43.568;27.824;2023-02-18T07:34:21;99117.16;;;11.07;94.05
9672;BME280;4874;43.568;27.824;2023-02-18T07:36:48;99121.56;;;11.26;97.87
9672;BME280;4874;43.568;27.824;2023-02-18T07:39:14;99132.22;;;11.53;98.40
9672;BME280;4874;43.568;27.824;2023-02-18T07:41:46;99113.16;;;11.30;93.61
9672;BME280;4874;43.568;27.824;2023-02-18T07:44:13;99105.56;;;11.35;95.72
9672;BME280;4874;43.568;27.824;2023-02-18T07:46:41;99128.81;;;11.60;95.50
9672;BME280;4874;43.568;27.824;2023-02-18T07:49:08;99143.28;;;11.48;95.81
9672;BME280;4874;43.568;27.824;2023-02-18T07:51:35;99130.34;;;11.72;94.88
9672;BME280;4874;43.568;27.824;2023-02-18T07:54:03;99124.22;;;11.90;94.95
9672;BME280;4874;43.568;27.824;2023-02-18T07:56:30;99129.03;;;11.86;98.24
9672;BME280;4874;43.568;27.824;2023-02-18T07:58:57;99135.78;;;11.98;95.33
9672;BME280;4874;43.568;27.824;2023-02-18T08:01:23;99129.81;;;12.14;92.41
9672;BME280;4874;43.568;27.824;2023-02-18T08:03:50;99118.50;;;12.29;92.36
9672;BME280;4874;43.568;27.824;2023-02-18T08:06:21;99124.31;;;12.42;90.87
9672;BME280;4874;43.568;27.824;2023-02-18T08:08:50;99117.84;;;12.62;87.68
9672;BME280;4874;43.568;27.824;2023-02-18T08:11:17;99108.56;;;13.10;84.54
9672;BME280;4874;43.568;27.824;2023-02-18T08:13:46;99079.56;;;13.07;81.98
9672;BME280;4874;43.568;27.824;2023-02-18T08:16:15;99085.88;;;13.31;81.22
9672;BME280;4874;43.568;27.824;2023-02-18T08:18:42;99102.59;;;15.13;84.14
9672;BME280;4874;43.568;27.824;2023-02-18T08:21:10;99105.53;;;14.13;75.88
9672;BME280;4874;43.568;27.824;2023-02-18T08:23:37;99088.59;;;13.81;76.40
9672;BME280;4874;43.568;27.824;2023-02-18T08:26:05;99106.34;;;13.98;77.26
9672;BME280;4874;43.568;27.824;2023-02-18T08:28:32;99086.88;;;13.64;76.56
9672;BME280;4874;43.568;27.824;2023-02-18T08:30:58;99077.06;;;13.72;74.78
9672;BME280;4874;43.568;27.824;2023-02-18T08:33:25;99092.59;;;13.85;74.45
9672;BME280;4874;43.568;27.824;2023-02-18T08:35:52;99083.72;;;13.76;74.17
9672;BME280;4874;43.568;27.824;2023-02-18T08:38:21;99090.41;;;13.80;73.02
9672;BME280;4874;43.568;27.824;2023-02-18T08:40:48;99094.72;;;13.73;73.68
9672;BME280;4874;43.568;27.824;2023-02-18T08:43:16;99091.09;;;13.82;73.99
9672;BME280;4874;43.568;27.824;2023-02-18T08:45:43;99087.94;;;13.87;74.23
9672;BME280;4874;43.568;27.824;2023-02-18T08:48:12;99095.63;;;13.90;73.18
9672;BME280;4874;43.568;27.824;2023-02-18T08:50:46;99105.84;;;14.02;72.92
9672;BME280;4874;43.568;27.824;2023-02-18T08:53:12;99112.19;;;14.09;72.18
9672;BME280;4874;43.568;27.824;2023-02-18T08:55:40;99107.88;;;14.08;73.18
9672;BME280;4874;43.568;27.824;2023-02-18T08:58:07;99102.22;;;14.19;72.99
9672;BME280;4874;43.568;27.824;2023-02-18T09:00:34;99096.34;;;14.16;72.98
9672;BME280;4874;43.568;27.824;2023-02-18T09:03:01;99096.16;;;14.01;72.15
9672;BME280;4874;43.568;27.824;2023-02-18T09:05:28;99064.66;;;14.05;71.95
9672;BME280;4874;43.568;27.824;2023-02-18T09:07:55;99092.03;;;14.07;70.55
9672;BME280;4874;43.568;27.824;2023-02-18T09:10:21;99066.63;;;14.03;70.43
9672;BME280;4874;43.568;27.824;2023-02-18T09:12:48;99089.00;;;14.10;70.69
9672;BME280;4874;43.568;27.824;2023-02-18T09:15:15;99075.84;;;14.16;70.13
9672;BME280;4874;43.568;27.824;2023-02-18T09:17:43;99074.66;;;14.11;70.82
9672;BME280;4874;43.568;27.824;2023-02-18T09:20:10;99079.81;;;14.04;70.63
9672;BME280;4874;43.568;27.824;2023-02-18T09:22:37;99069.81;;;14.06;70.72
9672;BME280;4874;43.568;27.824;2023-02-18T09:25:03;99065.09;;;13.92;70.84
9672;BME280;4874;43.568;27.824;2023-02-18T09:27:30;99067.28;;;13.97;70.18
9672;BME280;4874;43.568;27.824;2023-02-18T09:29:57;99044.44;;;13.86;70.60
9672;BME280;4874;43.568;27.824;2023-02-18T09:32:25;99037.44;;;13.93;70.33
9672;BME280;4874;43.568;27.824;2023-02-18T09:35:01;99060.47;;;14.02;69.81
9672;BME280;4874;43.568;27.824;2023-02-18T09:37:28;99057.09;;;14.00;70.58
9672;BME280;4874;43.568;27.824;2023-02-18T09:39:55;99052.78;;;13.91;70.74
9672;BME280;4874;43.568;27.824;2023-02-18T09:42:28;99066.41;;;13.88;71.03
9672;BME280;4874;43.568;27.824;2023-02-18T09:45:03;99051.78;;;14.00;71.37
9672;BME280;4874;43.568;27.824;2023-02-18T09:47:34;99060.28;;;13.96;71.58
9672;BME280;4874;43.568;27.824;2023-02-18T09:52:41;99053.47;;;14.17;71.86
9672;BME280;4874;43.568;27.824;2023-02-18T09:55:20;99051.13;;;14.06;72.41
9672;BME280;4874;43.568;27.824;2023-02-18T09:58:05;99051.47;;;14.11;72.62
9672;BME280;4874;43.568;27.824;2023-02-18T10:00:36;99061.97;;;14.05;73.16
9672;BME280;4874;43.568;27.824;2023-02-18T10:03:10;99065.78;;;14.02;73.55
9672;BME280;4874;43.568;27.824;2023-02-18T10:05:45;99013.06;;;13.88;73.82
9672;BME280;4874;43.568;27.824;2023-02-18T10:08:32;99047.47;;;14.15;73.30
9672;BME280;4874;43.568;27.824;2023-02-18T10:10:59;99040.31;;;14.24;72.70
9672;BME280;4874;43.568;27.824;2023-02-18T10:13:31;99046.34;;;14.42;72.77
9672;BME280;4874;43.568;27.824;2023-02-18T10:15:59;99054.53;;;14.41;72.84
9672;BME280;4874;43.568;27.824;2023-02-18T10:18:31;99050.53;;;14.45;72.23
9672;BME280;4874;43.568;27.824;2023-02-18T10:21:08;99050.88;;;14.58;71.89
9672;BME280;4874;43.568;27.824;2023-02-18T10:23:39;99051.19;;;14.63;72.22
9672;BME280;4874;43.568;27.824;2023-02-18T10:26:12;99051.22;;;14.55;72.33
9672;BME280;4874;43.568;27.824;2023-02-18T10:28:40;99032.84;;;14.52;72.67
9672;BME280;4874;43.568;27.824;2023-02-18T10:31:08;99016.47;;;14.47;73.50
9672;BME280;4874;43.568;27.824;2023-02-18T10:33:48;99031.13;;;14.83;73.44
9672;BME280;4874;43.568;27.824;2023-02-18T10:36:25;99030.44;;;14.97;73.20
9672;BME280;4874;43.568;27.824;2023-02-18T10:44:25;99030.94;;;15.00;73.01
9672;BME280;4874;43.568;27.824;2023-02-18T10:50:56;99016.94;;;14.90;73.26
9672;BME280;4874;43.568;27.824;2023-02-18T10:53:30;99012.19;;;15.16;73.04
9672;BME280;4874;43.568;27.824;2023-02-18T10:55:54;99019.72;;;15.05;73.05
9672;BME280;4874;43.568;27.824;2023-02-18T10:58:45;99013.72;;;15.03;73.09
9672;BME280;4874;43.568;27.824;2023-02-18T11:01:14;99009.91;;;14.97;73.59
9672;BME280;4874;43.568;27.824;2023-02-18T11:09:05;98989.28;;;15.22;74.63
9672;BME280;4874;43.568;27.824;2023-02-18T11:11:35;98995.34;;;15.08;74.33
9672;BME280;4874;43.568;27.824;2023-02-18T11:14:05;98983.28;;;15.12;74.39
9672;BME280;4874;43.568;27.824;2023-02-18T11:16:42;98974.31;;;14.97;74.20
9672;BME280;4874;43.568;27.824;2023-02-18T11:19:32;98971.31;;;14.92;74.37
9672;BME280;4874;43.568;27.824;2023-02-18T11:22:19;98976.75;;;15.14;75.01
9672;BME280;4874;43.568;27.824;2023-02-18T11:24:46;98968.25;;;15.11;75.73
9672;BME280;4874;43.568;27.824;2023-02-18T11:30:00;98956.22;;;15.15;76.30
9672;BME280;4874;43.568;27.824;2023-02-18T11:32:28;98965.25;;;15.06;77.06
9672;BME280;4874;43.568;27.824;2023-02-18T11:34:56;98932.34;;;15.05;76.92
9672;BME280;4874;43.568;27.824;2023-02-18T11:37:23;98948.06;;;15.00;77.48
9672;BME280;4874;43.568;27.824;2023-02-18T11:39:52;98949.34;;;15.12;77.37
9672;BME280;4874;43.568;27.824;2023-02-18T11:42:22;98935.25;;;15.26;77.10
9672;BME280;4874;43.568;27.824;2023-02-18T11:44:54;98934.78;;;15.23;78.18
9672;BME280;4874;43.568;27.824;2023-02-18T11:47:57;98929.25;;;15.24;79.19
9672;BME280;4874;43.568;27.824;2023-02-18T11:50:19;98923.22;;;15.30;79.42
9672;BME280;4874;43.568;27.824;2023-02-18T11:52:49;98919.19;;;14.88;80.17
9672;BME280;4874;43.568;27.824;2023-02-18T11:55:22;98924.81;;;15.48;78.95
9672;BME280;4874;43.568;27.824;2023-02-18T11:57:58;98911.31;;;15.33;79.19
9672;BME280;4874;43.568;27.824;2023-02-18T12:02:57;98910.34;;;15.26;79.29
9672;BME280;4874;43.568;27.824;2023-02-18T12:05:26;98909.88;;;14.76;80.78
9672;BME280;4874;43.568;27.824;2023-02-18T12:08:23;98922.59;;;15.12;80.47
9672;BME280;4874;43.568;27.824;2023-02-18T12:10:52;98916.19;;;14.83;82.26
9672;BME280;4874;43.568;27.824;2023-02-18T12:13:32;98929.69;;;14.97;82.73
9672;BME280;4874;43.568;27.824;2023-02-18T12:16:17;98921.88;;;14.88;83.07
9672;BME280;4874;43.568;27.824;2023-02-18T12:30:24;98903.34;;;14.86;85.12
9672;BME280;4874;43.568;27.824;2023-02-18T12:33:07;98906.84;;;14.87;84.83
9672;BME280;4874;43.568;27.824;2023-02-18T12:35:58;98894.88;;;14.75;85.04
9672;BME280;4874;43.568;27.824;2023-02-18T12:41:36;98896.88;;;14.81;84.81
9672;BME280;4874;43.568;27.824;2023-02-18T12:47:16;98895.34;;;14.78;85.12
9672;BME280;4874;43.568;27.824;2023-02-18T12:58:26;98899.59;;;15.34;85.70
9672;BME280;4874;43.568;27.824;2023-02-18T13:12:47;98911.25;;;14.64;88.92
9672;BME280;4874;43.568;27.824;2023-02-18T13:17:42;98901.75;;;14.61;90.64
9672;BME280;4874;43.568;27.824;2023-02-18T13:20:24;98907.94;;;14.54;91.31
9672;BME280;4874;43.568;27.824;2023-02-18T13:22:51;98908.97;;;14.45;91.76
9672;BME280;4874;43.568;27.824;2023-02-18T13:25:19;98913.81;;;14.49;92.63
9672;BME280;4874;43.568;27.824;2023-02-18T13:27:53;98911.31;;;14.48;93.28
9672;BME280;4874;43.568;27.824;2023-02-18T13:30:35;98901.94;;;14.44;93.86
9672;BME280;4874;43.568;27.824;2023-02-18T13:33:30;98914.63;;;14.42;94.53
9672;BME280;4874;43.568;27.824;2023-02-18T13:36:09;98914.16;;;14.46;94.96
9672;BME280;4874;43.568;27.824;2023-02-18T13:41:25;98912.66;;;14.36;95.00
9672;BME280;4874;43.568;27.824;2023-02-18T13:43:52;98920.34;;;14.31;95.19
9672;BME280;4874;43.568;27.824;2023-02-18T13:46:23;98881.13;;;14.07;95.95
9672;BME280;4874;43.568;27.824;2023-02-18T13:48:52;98834.59;;;13.85;95.91
9672;BME280;4874;43.568;27.824;2023-02-18T13:51:39;98912.69;;;14.28;97.23
9672;BME280;4874;43.568;27.824;2023-02-18T13:57:06;98906.81;;;14.24;97.92
9672;BME280;4874;43.568;27.824;2023-02-18T13:59:50;98913.81;;;14.17;99.46
9672;BME280;4874;43.568;27.824;2023-02-18T14:04:52;98903.66;;;14.21;99.94
9672;BME280;4874;43.568;27.824;2023-02-18T14:10:03;98901.16;;;14.03;100.00
9672;BME280;4874;43.568;27.824;2023-02-18T14:25:57;98896.81;;;13.94;100.00
9672;BME280;4874;43.568;27.824;2023-02-18T14:31:01;98891.81;;;13.91;100.00
9672;BME280;4874;43.568;27.824;2023-02-18T14:33:34;98897.31;;;13.89;100.00
9672;BME280;4874;43.568;27.824;2023-02-18T14:39:02;98904.97;;;13.76;100.00
9672;BME280;4874;43.568;27.824;2023-02-18T14:50:03;98886.63;;;13.65;100.00
9672;BME280;4874;43.568;27.824;2023-02-18T14:55:17;98885.63;;;13.58;100.00
9672;BME280;4874;43.568;27.824;2023-02-18T14:57:49;98895.78;;;13.63;100.00
9672;BME280;4874;43.568;27.824;2023-02-18T15:00:27;98894.13;;;13.70;100.00
9672;BME280;4874;43.568;27.824;2023-02-18T15:02:59;98888.63;;;13.55;100.00
9672;BME280;4874;43.568;27.824;2023-02-18T15:05:29;98885.28;;;13.53;100.00
9672;BME280;4874;43.568;27.824;2023-02-18T15:10:52;98892.09;;;13.48;100.00
9672;BME280;4874;43.568;27.824;2023-02-18T15:13:35;98880.97;;;13.52;100.00
9672;BME280;4874;43.568;27.824;2023-02-18T15:16:06;98881.94;;;13.51;100.00
9672;BME280;4874;43.568;27.824;2023-02-18T15:18:50;98889.78;;;13.37;100.00
9672;BME280;4874;43.568;27.824;2023-02-18T15:21:21;98865.38;;;13.16;100.00
9672;BME280;4874;43.568;27.824;2023-02-18T15:23:50;98872.06;;;13.20;100.00
9672;BME280;4874;43.568;27.824;2023-02-18T15:26:17;98877.25;;;13.21;100.00
9672;BME280;4874;43.568;27.824;2023-02-18T15:28:54;98881.25;;;13.33;100.00
9672;BME280;4874;43.568;27.824;2023-02-18T15:31:29;98885.06;;;13.15;100.00
9672;BME280;4874;43.568;27.824;2023-02-18T15:33:56;98886.72;;;13.16;100.00
9672;BME280;4874;43.568;27.824;2023-02-18T15:36:25;98886.47;;;13.75;100.00
9672;BME280;4874;43.568;27.824;2023-02-18T15:38:54;98878.19;;;13.04;100.00
9672;BME280;4874;43.568;27.824;2023-02-18T15:41:21;98882.50;;;13.05;100.00
9672;BME280;4874;43.568;27.824;2023-02-18T15:43:59;98839.91;;;12.71;100.00
9672;BME280;4874;43.568;27.824;2023-02-18T15:46:28;98836.75;;;12.76;100.00
9672;BME280;4874;43.568;27.824;2023-02-18T15:48:55;98881.13;;;13.01;100.00
9672;BME280;4874;43.568;27.824;2023-02-18T15:51:26;98867.78;;;13.01;100.00
9672;BME280;4874;43.568;27.824;2023-02-18T15:53:57;98879.97;;;12.95;100.00
9672;BME280;4874;43.568;27.824;2023-02-18T15:59:18;98888.88;;;13.20;100.00
9672;BME280;4874;43.568;27.824;2023-02-18T16:01:49;98886.25;;;12.94;100.00